Time;durP1;ratioP1;P1;durP2;ratioP2;P2;SDS_P1;SDS_P2;PMS_P1;PMS_P2;Temp;Humidity;BMP_temperature;BMP_pressure;BME280_temperature;BME280_humidity;BME280_pressure;Samples;Min_cycle;Max_cycle;Signal;HPM_P1;HPM_P2
2022/11/12 00:01:07;;;;;;;33.28;23.45;;;;;;;5.77;93.25;103031.59;5082495;28;20041;-58
2022/11/12 00:03:32;;;;;;;33.42;24.15;;;;;;;5.77;94.02;103026.34;5082884;28;20060;-56
2022/11/12 00:05:57;;;;;;;33.03;24.42;;;;;;;5.75;93.67;103034.34;5083392;28;20032;-57
2022/11/12 00:08:23;;;;;;;35.85;24.42;;;;;;;5.74;93.68;103042.31;5083797;28;20032;-56
2022/11/12 00:10:49;;;;;;;33.22;23.88;;;;;;;5.73;94.17;103038.81;5082370;28;21005;-57
2022/11/12 00:13:14;;;;;;;32.30;23.30;;;;;;;5.73;94.18;103046.72;5083367;28;20184;-58
2022/11/12 00:15:40;;;;;;;34.13;23.98;;;;;;;5.69;94.06;103050.44;5083147;28;20040;-59
2022/11/12 00:18:06;;;;;;;32.53;23.80;;;;;;;5.65;94.77;103054.13;5084540;28;20089;-57
2022/11/12 00:20:32;;;;;;;36.40;25.60;;;;;;;5.62;94.97;103038.47;5083755;28;20067;-57
2022/11/12 00:22:57;;;;;;;33.97;24.27;;;;;;;5.60;94.74;103040.34;5083438;28;20479;-56
2022/11/12 00:25:22;;;;;;;34.17;24.08;;;;;;;5.57;94.60;103049.22;5079234;28;20040;-57
2022/11/12 00:27:47;;;;;;;33.95;24.90;;;;;;;5.56;95.39;103046.66;5082772;28;20035;-59
2022/11/12 00:30:13;;;;;;;33.10;24.67;;;;;;;5.54;95.47;103052.03;5083013;28;20036;-60
2022/11/12 00:32:38;;;;;;;33.55;24.52;;;;;;;5.52;95.65;103052.09;5083773;28;20035;-56
2022/11/12 00:35:05;;;;;;;32.33;24.55;;;;;;;5.54;95.64;103056.44;5084261;28;20036;-57
2022/11/12 00:37:30;;;;;;;36.28;26.50;;;;;;;5.51;95.39;103058.28;5084236;28;20040;-57
2022/11/12 00:39:55;;;;;;;36.90;25.20;;;;;;;5.52;94.99;103060.00;5086273;28;20029;-57
2022/11/12 00:42:21;;;;;;;35.13;25.30;;;;;;;5.46;95.22;103060.28;5087459;28;20030;-56
2022/11/12 00:44:48;;;;;;;35.20;24.98;;;;;;;5.48;95.44;103054.97;5087890;28;20028;-58
2022/11/12 00:47:14;;;;;;;34.53;25.02;;;;;;;5.48;95.41;103047.91;5086799;28;20127;-56
2022/11/12 00:49:39;;;;;;;37.47;24.92;;;;;;;5.50;95.09;103046.06;5086433;28;20509;-57
2022/11/12 00:52:04;;;;;;;33.88;24.60;;;;;;;5.47;95.14;103038.31;5086375;28;20040;-58
2022/11/12 00:54:29;;;;;;;33.88;25.45;;;;;;;5.46;94.68;103047.13;5087193;28;20038;-59
2022/11/12 00:56:55;;;;;;;35.92;25.52;;;;;;;5.44;94.43;103046.38;5086956;28;20040;-58
2022/11/12 00:59:20;;;;;;;36.83;25.50;;;;;;;5.39;94.51;103043.09;5087800;28;20034;-56
2022/11/12 01:01:45;;;;;;;33.40;24.92;;;;;;;5.33;94.71;103044.22;5085850;28;20042;-59
2022/11/12 01:04:10;;;;;;;32.83;24.33;;;;;;;5.31;95.18;103042.56;5086915;28;20100;-57
2022/11/12 01:06:39;;;;;;;35.55;24.23;;;;;;;5.28;95.01;103040.09;5087460;28;20028;-58
2022/11/12 01:09:04;;;;;;;37.00;25.15;;;;;;;5.29;95.01;103041.81;5087072;28;20455;-57
2022/11/12 01:11:29;;;;;;;35.53;25.10;;;;;;;5.29;94.68;103044.44;5085967;28;20063;-59
2022/11/12 01:14:00;;;;;;;34.35;25.92;;;;;;;5.30;96.06;103033.84;5086194;28;20023;-57
2022/11/12 01:16:29;;;;;;;34.53;25.67;;;;;;;5.17;95.41;103028.31;5084356;28;20115;-59
2022/11/12 01:18:58;;;;;;;36.10;25.27;;;;;;;5.24;95.53;103040.25;5086142;28;20104;-58
2022/11/12 01:21:25;;;;;;;35.45;25.20;;;;;;;5.21;95.67;103031.63;5086070;28;20016;-57
2022/11/12 01:23:50;;;;;;;35.42;25.50;;;;;;;5.24;95.55;103034.97;5086767;28;20036;-57
2022/11/12 01:26:17;;;;;;;36.85;25.77;;;;;;;5.21;95.32;103039.53;5086183;28;20616;-59
2022/11/12 01:28:43;;;;;;;34.47;25.98;;;;;;;5.20;95.47;103033.44;5086185;28;20082;-57
2022/11/12 01:31:24;;;;;;;37.80;26.63;;;;;;;5.22;96.21;103036.84;5085766;28;20506;-59
2022/11/12 01:33:55;;;;;;;34.72;25.73;;;;;;;5.16;96.58;103037.13;5085542;28;20415;-58
2022/11/12 01:36:21;;;;;;;32.47;25.23;;;;;;;5.18;95.38;103034.44;5085486;28;20452;-56
2022/11/12 01:38:47;;;;;;;33.10;24.55;;;;;;;5.18;95.89;103032.63;5086236;28;20106;-59
2022/11/12 01:41:16;;;;;;;32.55;24.75;;;;;;;5.20;95.51;103033.44;5073355;28;20525;-57
2022/11/12 01:43:41;;;;;;;32.17;23.95;;;;;;;5.22;95.28;103030.72;5087335;28;20032;-57
2022/11/12 01:46:18;;;;;;;33.33;24.40;;;;;;;5.14;95.32;103027.59;5085853;28;20046;-57
2022/11/12 01:49:17;;;;;;;35.55;25.23;;;;;;;5.18;95.72;103030.00;5078592;28;20032;-57
2022/11/12 01:51:48;;;;;;;32.83;24.42;;;;;;;5.08;94.94;103023.50;5071909;28;20051;-58
2022/11/12 01:54:16;;;;;;;33.58;23.40;;;;;;;5.05;95.02;103028.88;5085253;28;20031;-57
2022/11/12 01:56:41;;;;;;;31.23;23.15;;;;;;;5.03;95.23;103030.72;5078824;28;20047;-59
2022/11/12 01:59:13;;;;;;;33.95;24.13;;;;;;;4.96;94.67;103023.13;5083794;28;20023;-57
2022/11/12 02:01:38;;;;;;;30.73;23.27;;;;;;;4.92;94.95;103026.81;5085557;28;20117;-58
2022/11/12 02:04:04;;;;;;;32.92;24.13;;;;;;;4.87;94.26;103026.16;5081860;28;20073;-57
2022/11/12 02:06:31;;;;;;;32.28;23.75;;;;;;;4.84;94.39;103026.31;5085666;28;20070;-58
2022/11/12 02:08:57;;;;;;;31.63;23.30;;;;;;;4.80;94.69;103022.94;5084710;28;20390;-59
2022/11/12 02:11:22;;;;;;;31.33;23.05;;;;;;;4.81;94.96;103021.19;5084818;28;20031;-56
2022/11/12 02:14:00;;;;;;;31.27;23.40;;;;;;;4.78;94.19;103018.72;5083727;28;20020;-57
2022/11/12 02:16:37;;;;;;;30.30;23.42;;;;;;;4.76;95.02;103023.16;5082670;28;20032;-57
2022/11/12 02:19:04;;;;;;;31.73;22.63;;;;;;;4.69;95.10;103023.44;5085833;28;20043;-57
2022/11/12 02:21:30;;;;;;;29.95;22.55;;;;;;;4.67;94.65;103030.56;5084308;28;20024;-57
2022/11/12 02:24:25;;;;;;;30.90;22.65;;;;;;;4.66;95.64;103023.59;5086065;28;20886;-58
2022/11/12 02:26:53;;;;;;;30.13;22.23;;;;;;;4.61;94.83;103029.94;5085082;28;20048;-59
2022/11/12 02:29:18;;;;;;;28.98;21.90;;;;;;;4.57;94.86;103023.97;5083669;28;20128;-57
2022/11/12 02:31:43;;;;;;;29.27;21.95;;;;;;;4.52;94.71;103026.81;5085996;28;20876;-56
2022/11/12 02:34:09;;;;;;;30.13;21.83;;;;;;;4.51;95.23;103021.63;5084775;28;20040;-59
2022/11/12 02:36:34;;;;;;;28.75;21.40;;;;;;;4.47;94.46;103020.03;5084109;28;20461;-60
2022/11/12 02:38:59;;;;;;;30.00;21.83;;;;;;;4.50;94.93;103023.41;5084337;28;20047;-60
2022/11/12 02:41:25;;;;;;;29.75;21.05;;;;;;;4.45;94.97;103025.41;5083290;28;20063;-57
2022/11/12 02:43:50;;;;;;;30.20;21.30;;;;;;;4.37;94.85;103027.47;5084976;28;20479;-56
2022/11/12 02:46:16;;;;;;;29.35;21.13;;;;;;;4.30;95.26;103019.03;5084040;28;20048;-56
2022/11/12 02:48:41;;;;;;;27.55;20.15;;;;;;;4.37;95.51;103012.59;5083982;28;20039;-57
2022/11/12 02:51:08;;;;;;;27.70;20.80;;;;;;;4.36;95.30;103005.63;5083812;28;20055;-57
2022/11/12 02:53:33;;;;;;;26.95;19.80;;;;;;;4.37;94.84;103012.59;5084932;28;20035;-58
2022/11/12 02:56:00;;;;;;;26.67;19.38;;;;;;;4.36;95.26;103005.63;5078318;28;20035;-58
2022/11/12 02:58:25;;;;;;;26.83;19.50;;;;;;;4.36;95.58;103008.25;5082302;28;20102;-57
2022/11/12 03:00:52;;;;;;;27.20;18.75;;;;;;;4.36;95.20;103002.13;5082143;28;20123;-57
2022/11/12 03:03:17;;;;;;;27.98;19.55;;;;;;;4.36;95.23;103003.00;5083808;28;20039;-57
2022/11/12 03:05:44;;;;;;;27.90;18.92;;;;;;;4.36;94.83;103000.38;5083511;28;20023;-59
2022/11/12 03:08:11;;;;;;;27.85;19.80;;;;;;;4.38;94.81;103006.41;5083554;28;20165;-57
2022/11/12 03:10:38;;;;;;;27.10;18.88;;;;;;;4.34;95.42;103006.63;5084418;28;20039;-57
2022/11/12 03:13:03;;;;;;;27.88;19.17;;;;;;;4.31;95.41;103000.56;5079088;28;20031;-59
2022/11/12 03:15:30;;;;;;;26.60;19.02;;;;;;;4.38;94.83;103003.78;5081586;28;20035;-57
2022/11/12 03:17:59;;;;;;;25.67;18.55;;;;;;;4.41;95.23;103005.41;5080483;28;20036;-59
2022/11/12 03:20:24;;;;;;;26.55;18.15;;;;;;;4.41;95.11;103006.28;5081231;28;20101;-57
2022/11/12 03:22:55;;;;;;;27.42;18.38;;;;;;;4.39;95.33;103009.91;5081863;28;20394;-59
2022/11/12 03:25:20;;;;;;;25.63;17.98;;;;;;;4.36;94.81;103013.50;5083527;28;20043;-58
2022/11/12 03:27:46;;;;;;;26.27;17.73;;;;;;;4.35;94.50;103022.31;5082582;28;20089;-55
2022/11/12 03:30:11;;;;;;;25.23;17.88;;;;;;;4.30;94.96;103021.66;5082925;28;20154;-57
2022/11/12 03:32:37;;;;;;;26.13;17.40;;;;;;;4.32;94.28;103019.81;5082834;28;20135;-58
2022/11/12 03:35:02;;;;;;;26.20;18.13;;;;;;;4.27;94.78;103022.63;5084550;28;20032;-56
2022/11/12 03:37:27;;;;;;;26.35;17.77;;;;;;;4.21;95.06;103017.66;5084743;28;20498;-57
2022/11/12 03:39:53;;;;;;;24.20;17.20;;;;;;;4.23;95.01;103021.06;5084454;28;20020;-59
2022/11/12 03:42:18;;;;;;;24.85;17.75;;;;;;;4.21;94.77;103016.78;5082056;28;20165;-57
2022/11/12 03:44:43;;;;;;;25.92;16.52;;;;;;;4.24;95.07;103021.91;5083547;28;20851;-59
2022/11/12 03:47:08;;;;;;;23.13;16.50;;;;;;;4.23;95.87;103036.81;5082709;28;20052;-57
2022/11/12 03:49:34;;;;;;;23.60;17.15;;;;;;;4.23;95.79;103030.69;5084736;28;20040;-57
2022/11/12 03:51:59;;;;;;;23.10;16.25;;;;;;;4.21;95.61;103027.28;5081702;28;20058;-57
2022/11/12 03:54:24;;;;;;;22.27;16.08;;;;;;;4.21;95.42;103022.03;5082325;28;20032;-58
2022/11/12 03:56:49;;;;;;;22.55;16.27;;;;;;;4.17;96.20;103022.19;5082692;28;20046;-58
2022/11/12 03:59:15;;;;;;;25.60;16.83;;;;;;;4.20;96.56;103025.59;5082855;28;20067;-59
2022/11/12 04:01:40;;;;;;;22.60;15.32;;;;;;;4.19;96.28;103029.13;5083859;28;20483;-57
2022/11/12 04:04:05;;;;;;;22.95;15.23;;;;;;;4.14;95.43;103022.28;5082945;28;20036;-59
2022/11/12 04:09:14;;;;;;;21.92;15.85;;;;;;;4.08;96.79;103017.31;5082106;28;20047;-59
2022/11/12 04:11:39;;;;;;;23.80;15.80;;;;;;;4.10;96.76;103009.38;5082254;28;20031;-60
2022/11/12 04:14:05;;;;;;;22.95;14.88;;;;;;;4.07;96.20;102999.84;5085631;28;20032;-57
2022/11/12 04:22:03;;;;;;;22.20;14.75;;;;;;;4.06;95.74;102986.78;5079706;28;20047;-59
2022/11/12 04:27:16;;;;;;;21.90;14.27;;;;;;;4.12;96.11;103000.50;5086755;28;20043;-57
2022/11/12 04:32:27;;;;;;;19.80;13.80;;;;;;;4.06;96.02;102982.41;5087165;28;20076;-58
2022/11/12 04:34:53;;;;;;;20.60;14.05;;;;;;;4.05;95.47;102985.94;5086882;28;20028;-57
2022/11/12 04:37:19;;;;;;;22.10;14.30;;;;;;;4.06;95.65;102992.03;5087178;28;20475;-58
2022/11/12 04:39:44;;;;;;;21.65;14.35;;;;;;;4.05;95.11;102991.19;5087564;28;20067;-57
2022/11/12 04:45:04;;;;;;;20.83;14.35;;;;;;;4.04;95.92;103002.59;5083804;28;20082;-59
2022/11/12 04:47:32;;;;;;;19.88;13.80;;;;;;;4.04;95.31;102999.97;5087688;28;20052;-59
2022/11/12 04:49:58;;;;;;;21.00;13.93;;;;;;;4.03;95.61;102998.25;5088003;28;20525;-57
2022/11/12 04:52:25;;;;;;;22.60;14.20;;;;;;;4.04;95.37;102994.72;5086994;28;20057;-57
2022/11/12 04:54:51;;;;;;;24.45;14.85;;;;;;;4.03;95.15;102998.25;5087187;28;20032;-59
2022/11/12 04:57:16;;;;;;;20.85;13.52;;;;;;;4.01;94.72;102984.34;5086770;28;20035;-58
2022/11/12 04:59:41;;;;;;;20.05;13.32;;;;;;;4.00;95.32;102983.50;5086981;28;20031;-57
2022/11/12 05:02:08;;;;;;;22.13;13.93;;;;;;;3.98;94.93;102980.09;5085269;28;20032;-59
2022/11/12 05:04:33;;;;;;;20.48;14.27;;;;;;;3.96;95.05;102973.19;5083409;28;20059;-57
2022/11/12 05:06:59;;;;;;;21.23;14.48;;;;;;;3.92;95.24;102975.09;5085338;28;20590;-60
2022/11/12 05:09:27;;;;;;;19.63;12.85;;;;;;;3.92;95.77;102976.84;5085315;28;20114;-59
2022/11/12 05:11:56;;;;;;;22.95;14.70;;;;;;;3.90;95.52;102974.31;5079195;28;20059;-59
2022/11/12 05:14:22;;;;;;;21.20;13.57;;;;;;;3.92;94.90;102979.47;5078308;28;20106;-58
2022/11/12 05:16:47;;;;;;;22.95;13.77;;;;;;;3.88;95.09;102968.25;5079210;28;20459;-59
2022/11/12 05:19:13;;;;;;;24.15;14.48;;;;;;;3.86;95.43;102976.19;5083403;28;20032;-57
2022/11/12 05:24:22;;;;;;;20.50;13.50;;;;;;;3.84;95.72;102964.09;5075157;28;20434;-57
2022/11/12 05:26:48;;;;;;;22.50;13.77;;;;;;;3.84;95.42;102971.97;5079651;28;20039;-58
2022/11/12 05:29:13;;;;;;;20.58;13.45;;;;;;;3.82;95.41;102964.13;5071402;28;20112;-58
2022/11/12 05:31:38;;;;;;;21.60;13.23;;;;;;;3.84;95.49;102967.53;5079514;28;20104;-58
2022/11/12 05:34:03;;;;;;;22.10;13.77;;;;;;;3.82;95.45;102964.13;5079402;28;20134;-58
2022/11/12 05:36:29;;;;;;;19.75;13.43;;;;;;;3.82;95.13;102958.88;5079627;28;20506;-57
2022/11/12 05:38:54;;;;;;;20.80;12.85;;;;;;;3.81;95.57;102957.19;5082782;28;20093;-59
2022/11/12 05:41:19;;;;;;;20.20;13.57;;;;;;;3.79;96.97;102964.25;5080328;28;20399;-57
2022/11/12 05:43:45;;;;;;;19.85;13.20;;;;;;;3.80;96.56;102958.06;5081821;28;20031;-59
2022/11/12 05:46:10;;;;;;;20.58;13.38;;;;;;;3.80;96.56;102960.69;5078525;28;20367;-57
2022/11/12 05:48:35;;;;;;;19.60;13.32;;;;;;;3.79;96.60;102969.50;5079880;28;20050;-59
2022/11/12 05:51:01;;;;;;;22.67;13.48;;;;;;;3.77;95.66;102960.84;5075778;28;20139;-58
2022/11/12 05:53:26;;;;;;;19.67;13.15;;;;;;;3.75;95.65;102963.53;5076123;28;20027;-57
2022/11/12 05:55:51;;;;;;;20.48;12.80;;;;;;;3.74;95.97;102966.22;5080388;28;20028;-57
2022/11/12 05:58:17;;;;;;;20.20;12.23;;;;;;;3.76;96.67;102964.41;5079952;28;20032;-58
2022/11/12 06:00:42;;;;;;;18.63;12.82;;;;;;;3.77;96.39;102966.94;5079757;28;20035;-59
2022/11/12 06:03:09;;;;;;;20.48;12.80;;;;;;;3.73;96.22;102967.13;5078838;28;20035;-59
2022/11/12 06:05:35;;;;;;;20.77;13.20;;;;;;;3.74;96.82;102959.19;5078818;28;20040;-59
2022/11/12 06:08:01;;;;;;;20.08;12.52;;;;;;;3.77;96.77;102963.47;5081313;28;20051;-57
2022/11/12 06:10:26;;;;;;;18.60;12.60;;;;;;;3.75;96.19;102953.03;5082350;28;20399;-58
2022/11/12 06:12:53;;;;;;;19.95;12.75;;;;;;;3.77;95.86;102966.09;5082022;28;20032;-58
2022/11/12 06:15:18;;;;;;;18.80;12.27;;;;;;;3.75;96.17;102962.69;5079910;28;20039;-57
2022/11/12 06:17:44;;;;;;;19.92;12.65;;;;;;;3.76;96.21;102965.22;5080790;28;20031;-57
2022/11/12 06:20:09;;;;;;;17.85;12.30;;;;;;;3.73;96.05;102961.88;5074044;28;20079;-57
2022/11/12 06:22:35;;;;;;;21.92;12.60;;;;;;;3.72;95.33;102957.56;5078337;28;20509;-57
2022/11/12 06:25:00;;;;;;;21.30;12.30;;;;;;;3.71;96.06;102966.34;5079837;28;20067;-57
2022/11/12 06:27:25;;;;;;;19.75;12.40;;;;;;;3.72;95.63;102968.06;5082024;28;20024;-59
2022/11/12 06:29:51;;;;;;;19.73;12.25;;;;;;;3.72;95.62;102981.19;5079886;28;20039;-58
2022/11/12 06:32:16;;;;;;;19.55;12.27;;;;;;;3.70;95.58;102975.16;5079722;28;20372;-58
2022/11/12 06:34:41;;;;;;;19.70;12.63;;;;;;;3.62;95.55;102973.66;5081093;28;20139;-56
2022/11/12 06:37:06;;;;;;;20.20;12.50;;;;;;;3.59;95.13;102979.06;5080448;28;20036;-59
2022/11/12 06:39:32;;;;;;;19.67;12.15;;;;;;;3.60;95.71;102975.50;5079830;28;20577;-57
2022/11/12 06:41:57;;;;;;;19.45;12.73;;;;;;;3.49;95.06;102967.22;5080644;28;20035;-60
2022/11/12 06:44:22;;;;;;;20.77;13.52;;;;;;;3.50;96.04;102968.91;5080322;28;20530;-56
2022/11/12 06:46:48;;;;;;;18.33;12.48;;;;;;;3.49;95.59;102977.72;5081038;28;20055;-61
2022/11/12 06:49:13;;;;;;;19.00;13.25;;;;;;;3.51;95.83;102983.78;5079835;28;20054;-58
2022/11/12 06:51:38;;;;;;;19.48;12.90;;;;;;;3.51;96.33;102983.78;5080094;28;20028;-57
2022/11/12 06:54:04;;;;;;;21.45;13.25;;;;;;;3.54;95.71;102981.00;5076445;28;20036;-58
2022/11/12 06:56:30;;;;;;;19.65;13.27;;;;;;;3.53;95.76;102987.19;5073525;28;20165;-58
2022/11/12 06:58:55;;;;;;;22.33;13.75;;;;;;;3.52;95.71;102987.22;5075665;28;20040;-59
2022/11/12 07:01:20;;;;;;;20.42;13.90;;;;;;;3.52;96.14;102987.22;5080726;28;20074;-59
2022/11/12 07:03:50;;;;;;;22.50;14.27;;;;;;;3.43;96.07;102980.59;5072000;28;20589;-58
2022/11/12 07:06:19;;;;;;;20.25;13.73;;;;;;;3.47;96.39;102984.81;5078193;28;20376;-58
2022/11/12 07:08:46;;;;;;;19.33;13.45;;;;;;;3.46;96.76;102989.19;5075109;28;20040;-58
2022/11/12 07:11:12;;;;;;;22.35;13.93;;;;;;;3.49;96.75;102982.97;5078435;28;20372;-59
2022/11/12 07:13:38;;;;;;;21.75;14.07;;;;;;;3.52;96.36;102990.72;5080728;28;20138;-58
2022/11/12 07:16:05;;;;;;;22.00;12.98;;;;;;;3.52;96.71;102982.84;5081593;28;20382;-57
2022/11/12 07:18:32;;;;;;;20.55;13.88;;;;;;;3.52;96.90;102985.47;5077591;28;20077;-57
2022/11/12 07:20:59;;;;;;;20.23;13.30;;;;;;;3.54;96.64;102986.25;5080953;28;20032;-57
2022/11/12 07:23:25;;;;;;;21.05;13.25;;;;;;;3.57;96.47;102988.78;5077642;28;20111;-59
2022/11/12 07:26:01;;;;;;;22.75;14.23;;;;;;;3.62;97.32;102999.91;5079956;28;20099;-58
2022/11/12 07:28:27;;;;;;;20.75;13.18;;;;;;;3.61;96.96;102998.19;5077401;28;20491;-58
2022/11/12 07:31:01;;;;;;;21.48;13.32;;;;;;;3.63;96.74;102978.03;5076591;28;20032;-58
2022/11/12 07:33:27;;;;;;;20.33;13.77;;;;;;;3.68;96.93;102988.31;5071607;28;20031;-57
2022/11/12 07:36:04;;;;;;;20.98;14.15;;;;;;;3.71;96.86;102984.72;5076780;28;20081;-58
2022/11/12 07:38:32;;;;;;;23.05;14.50;;;;;;;3.74;97.27;102987.19;5073840;28;20070;-58
2022/11/12 07:41:01;;;;;;;21.98;14.23;;;;;;;3.79;97.67;102995.75;5077088;28;20077;-59
2022/11/12 07:43:28;;;;;;;22.42;15.00;;;;;;;3.77;97.33;103002.84;5075879;28;20077;-59
2022/11/12 07:45:57;;;;;;;22.05;14.75;;;;;;;3.79;98.18;103011.50;5079309;28;20268;-58
2022/11/12 07:48:23;;;;;;;24.85;15.05;;;;;;;3.80;97.57;103002.69;5078709;28;20099;-59
2022/11/12 07:50:48;;;;;;;23.45;16.10;;;;;;;3.83;98.13;102999.97;5079967;28;20456;-57
2022/11/12 07:53:13;;;;;;;26.27;15.93;;;;;;;3.89;98.40;103002.31;5077579;28;20516;-58
2022/11/12 07:55:38;;;;;;;23.23;15.40;;;;;;;3.96;98.13;103007.31;5076058;28;20024;-58
2022/11/12 07:58:04;;;;;;;24.00;15.88;;;;;;;4.02;98.70;103001.81;5073253;28;20070;-58
2022/11/12 08:00:29;;;;;;;22.63;15.43;;;;;;;4.09;98.45;103002.41;5077118;28;20031;-57
2022/11/12 08:02:59;;;;;;;22.35;14.48;;;;;;;4.12;98.78;103010.16;5079492;28;20028;-57
2022/11/12 08:05:24;;;;;;;22.92;14.68;;;;;;;4.14;97.63;103011.78;5078682;28;20043;-57
2022/11/12 08:07:49;;;;;;;24.17;14.45;;;;;;;4.20;98.16;103004.56;5075550;28;20025;-56
2022/11/12 08:10:15;;;;;;;24.40;14.13;;;;;;;4.24;98.88;103007.00;5074528;28;20226;-58
2022/11/12 08:12:40;;;;;;;23.17;13.90;;;;;;;4.30;98.71;103016.41;5073485;28;20036;-59
2022/11/12 08:15:05;;;;;;;19.95;13.80;;;;;;;4.34;99.48;103017.97;5073642;28;20028;-58
2022/11/12 08:17:31;;;;;;;21.20;14.30;;;;;;;4.39;99.51;103018.63;5070309;28;20498;-59
2022/11/12 08:19:56;;;;;;;20.48;14.10;;;;;;;4.47;99.01;103022.66;5071291;28;20550;-60
2022/11/12 08:22:21;;;;;;;20.33;13.75;;;;;;;4.49;99.13;103020.84;5071609;28;20031;-58
2022/11/12 08:24:47;;;;;;;22.70;13.85;;;;;;;4.56;99.22;103020.53;5070388;28;20036;-60
2022/11/12 08:27:12;;;;;;;22.58;13.00;;;;;;;4.63;98.59;103022.88;5066796;28;20466;-58
2022/11/12 08:29:37;;;;;;;22.45;13.52;;;;;;;4.69;98.67;103025.22;5069870;28;20047;-57
2022/11/12 08:32:02;;;;;;;21.23;14.27;;;;;;;4.75;98.03;103029.34;5072469;28;20035;-58
2022/11/12 08:34:28;;;;;;;24.80;14.32;;;;;;;4.81;99.15;103026.44;5071287;28;20061;-57
2022/11/12 08:36:53;;;;;;;21.38;14.48;;;;;;;4.87;99.04;103031.41;5072797;28;20418;-60
2022/11/12 08:39:18;;;;;;;20.70;14.15;;;;;;;4.95;99.22;103025.81;5070122;28;20091;-58
2022/11/12 08:41:43;;;;;;;23.80;14.80;;;;;;;5.01;98.98;103022.03;5073589;28;20030;-58
2022/11/12 08:44:09;;;;;;;24.85;15.68;;;;;;;5.10;99.81;103021.63;5073202;28;20032;-57
2022/11/12 08:46:34;;;;;;;22.00;15.32;;;;;;;5.18;99.29;103024.75;5070987;28;20084;-59
2022/11/12 08:48:59;;;;;;;23.33;14.70;;;;;;;5.27;99.24;103033.97;5072711;28;20185;-59
2022/11/12 08:51:25;;;;;;;24.60;15.50;;;;;;;5.34;99.32;103034.56;5071729;28;20058;-60
2022/11/12 08:53:50;;;;;;;22.70;14.95;;;;;;;5.37;99.21;103029.13;5071338;28;20035;-58
2022/11/12 08:56:16;;;;;;;23.58;14.32;;;;;;;5.44;99.13;103029.69;5073999;28;20023;-59
2022/11/12 08:58:41;;;;;;;22.17;14.05;;;;;;;5.53;98.09;103031.91;5072599;28;20032;-59
2022/11/12 09:01:07;;;;;;;22.75;15.45;;;;;;;5.61;98.63;103031.50;5073541;28;20536;-58
2022/11/12 09:03:32;;;;;;;21.77;14.85;;;;;;;5.66;99.13;103021.63;5076458;28;20086;-58
2022/11/12 09:06:01;;;;;;;21.98;15.07;;;;;;;5.72;98.33;103021.31;5071770;28;20036;-58
2022/11/12 09:08:26;;;;;;;20.75;14.90;;;;;;;5.77;99.16;103019.31;5075841;28;20537;-58
2022/11/12 09:10:52;;;;;;;24.25;15.63;;;;;;;5.83;99.26;103018.16;5077178;28;20064;-58
2022/11/12 09:13:18;;;;;;;25.40;15.43;;;;;;;5.90;99.49;103018.69;5076590;28;20479;-59
2022/11/12 09:15:44;;;;;;;26.23;15.35;;;;;;;5.98;98.92;103023.59;5074087;28;20363;-60
2022/11/12 09:18:12;;;;;;;25.05;15.25;;;;;;;6.05;98.76;103025.88;5071705;28;20032;-60
2022/11/12 09:20:38;;;;;;;21.40;14.88;;;;;;;6.12;98.97;103020.28;5074758;28;20047;-60
2022/11/12 09:23:10;;;;;;;21.80;15.68;;;;;;;6.22;99.84;103026.78;5074875;28;20043;-58
2022/11/12 09:25:35;;;;;;;24.58;15.32;;;;;;;6.28;99.77;103026.47;5075217;28;20053;-59
2022/11/12 09:28:19;;;;;;;25.70;15.10;;;;;;;6.40;99.89;103024.13;5073953;28;20683;-59
2022/11/12 09:30:48;;;;;;;22.67;15.55;;;;;;;6.49;98.81;103023.66;5076078;28;20475;-59
2022/11/12 09:33:23;;;;;;;23.42;14.68;;;;;;;6.59;99.17;103024.88;5082467;28;20044;-59
2022/11/12 09:35:49;;;;;;;23.85;14.07;;;;;;;6.66;98.73;103024.56;5078117;28;20123;-61
2022/11/12 09:38:16;;;;;;;20.52;14.25;;;;;;;6.72;98.08;103024.22;5079902;28;20024;-59
2022/11/12 09:40:50;;;;;;;22.48;14.70;;;;;;;6.75;97.73;103024.06;5081649;28;20374;-60
2022/11/12 09:43:30;;;;;;;20.25;14.27;;;;;;;6.80;97.54;103024.66;5081566;28;20032;-58
2022/11/12 09:46:05;;;;;;;20.42;13.85;;;;;;;6.87;97.31;103022.56;5078896;28;20075;-58
2022/11/12 09:48:47;;;;;;;21.88;13.95;;;;;;;6.94;97.28;103028.34;5081851;28;20047;-60
2022/11/12 09:51:27;;;;;;;21.73;14.27;;;;;;;6.97;97.48;103028.19;5080499;28;20066;-58
2022/11/12 09:54:06;;;;;;;22.30;14.35;;;;;;;7.08;97.28;103030.22;5081794;28;20070;-61
2022/11/12 09:56:31;;;;;;;21.50;13.82;;;;;;;7.16;95.52;103024.53;5078674;28;20487;-60
2022/11/12 09:58:56;;;;;;;22.25;12.75;;;;;;;7.26;95.19;103028.38;5081991;28;20027;-58
2022/11/12 10:01:40;;;;;;;18.90;12.77;;;;;;;7.39;94.43;103028.50;5080739;28;20039;-58
2022/11/12 10:04:08;;;;;;;;;;;;;;;7.39;95.42;103028.50;5081819;28;20431;-60
2022/11/12 10:06:45;;;;;;;19.48;13.18;;;;;;;7.44;94.11;103021.19;5080609;28;19919;-58
2022/11/12 10:09:18;;;;;;;20.77;13.75;;;;;;;7.53;93.88;103025.09;5081918;28;20036;-59
2022/11/12 10:18:31;;;;;;;21.63;12.90;;;;;;;7.81;92.95;103008.50;5076739;28;20105;-59
2022/11/12 10:21:22;;;;;;;19.05;12.45;;;;;;;7.89;92.51;103016.00;5081541;28;20461;-60
2022/11/12 10:23:51;;;;;;;20.42;13.00;;;;;;;8.03;92.41;103001.09;5080732;28;20020;-58
2022/11/12 10:26:23;;;;;;;21.90;13.35;;;;;;;8.14;92.01;103006.59;5080777;28;20089;-59
2022/11/12 10:28:58;;;;;;;20.03;12.83;;;;;;;8.23;91.42;103009.66;5080700;28;20562;-58
2022/11/12 10:31:23;;;;;;;24.50;12.65;;;;;;;8.27;91.04;103009.38;5080478;28;20329;-60
2022/11/12 10:33:48;;;;;;;18.02;12.38;;;;;;;8.33;89.95;103008.13;5077113;28;20043;-57
2022/11/12 10:36:27;;;;;;;19.33;12.60;;;;;;;8.34;90.03;103009.88;5078993;28;20077;-58
2022/11/12 10:38:54;;;;;;;21.60;13.00;;;;;;;8.40;89.34;103009.50;5081975;28;20043;-59
2022/11/12 10:41:29;;;;;;;21.98;12.98;;;;;;;8.55;88.41;103012.16;5080393;28;20088;-60
2022/11/12 10:44:02;;;;;;;17.30;12.10;;;;;;;8.60;88.07;103002.97;5077833;28;20085;-60
2022/11/12 10:46:30;;;;;;;20.02;13.27;;;;;;;8.65;88.26;102997.44;5075376;28;20063;-58
2022/11/12 10:48:59;;;;;;;20.33;13.27;;;;;;;8.71;87.64;103002.34;5080127;28;20081;-58
2022/11/12 10:51:28;;;;;;;21.65;13.05;;;;;;;8.72;88.07;102988.16;5074385;28;20071;-60
2022/11/12 10:53:54;;;;;;;20.02;12.65;;;;;;;8.90;86.83;102995.88;5079690;28;20123;-58
2022/11/12 10:56:30;;;;;;;20.77;12.80;;;;;;;8.93;87.01;102995.69;5080065;28;20114;-60
2022/11/12 10:59:12;;;;;;;18.83;11.20;;;;;;;8.96;86.98;102989.34;5079603;28;20406;-59
2022/11/12 11:01:37;;;;;;;17.85;11.35;;;;;;;9.05;85.01;102985.25;5075037;28;20119;-58
2022/11/12 11:04:03;;;;;;;18.58;11.18;;;;;;;9.16;84.66;102985.41;5072995;28;20364;-59
2022/11/12 11:06:28;;;;;;;16.02;11.07;;;;;;;9.26;84.59;102975.94;5077124;28;20035;-59
2022/11/12 11:09:13;;;;;;;18.42;12.00;;;;;;;9.36;84.85;102975.31;5076820;28;20039;-59
2022/11/12 11:11:48;;;;;;;17.10;11.32;;;;;;;9.45;83.29;102974.72;5071898;28;20376;-59
2022/11/12 11:14:24;;;;;;;16.60;11.20;;;;;;;9.51;82.96;102982.28;5072803;28;20474;-61
2022/11/12 11:16:52;;;;;;;19.08;11.55;;;;;;;9.67;81.35;102983.91;5073501;28;20118;-60
2022/11/12 11:19:18;;;;;;;16.02;11.38;;;;;;;9.73;81.76;102980.84;5067218;28;20067;-61
2022/11/12 11:21:49;;;;;;;19.35;11.18;;;;;;;9.74;81.66;102984.34;5071252;28;20040;-60
2022/11/12 11:24:29;;;;;;;17.40;11.45;;;;;;;9.81;82.12;102975.88;5071069;28;20036;-60
2022/11/12 11:27:07;;;;;;;15.07;10.82;;;;;;;9.89;81.31;102974.50;5072046;28;20548;-59
2022/11/12 11:29:51;;;;;;;15.15;10.85;;;;;;;9.87;81.34;102974.59;5078720;28;20039;-63
2022/11/12 11:32:29;;;;;;;16.73;10.55;;;;;;;9.99;79.90;102972.06;5071979;28;20418;-59
2022/11/12 11:35:00;;;;;;;14.40;10.50;;;;;;;9.97;80.41;102974.84;5078718;28;20388;-60
2022/11/12 11:37:29;;;;;;;17.48;10.70;;;;;;;10.14;79.26;102972.81;5074353;28;20043;-59
2022/11/12 11:40:19;;;;;;;16.80;10.75;;;;;;;10.21;79.52;102976.72;5074727;28;20032;-61
2022/11/12 11:43:02;;;;;;;15.98;10.48;;;;;;;10.42;78.91;102960.28;5073447;28;20065;-60
2022/11/12 11:45:47;;;;;;;16.33;10.00;;;;;;;10.49;78.98;102961.59;5073376;28;20463;-59